Aérodrome :
LOGIN :

S'inscrire | Disclaimer

   EN    FR    IT 

 










Légende :    VFR   VFR Marginal   IFR   IFR Intensif   IFR Très Intensif
Visi : 
Plafond : 
>= 8 km
>= 3000ft
5 à 8 km
1000 à 3000 ft
1500m à 5 km
500 à 1000 ft
800 à 1500m
200 à 500 ft
< 800m
< 200 ft
Symboles :   Orages  Brouillard  Fortes neiges  Fortes précipitations  Vent > 20 kt
SIGMETs :   Divers  Orages  Givrage  Turbulence  Onde Orograph.  Cendres Volcan.






- Altitude de l'aérodrome : 20 ft
- Code IATA : OBN


EGEO - Oban

DERNIER METAR :
  • 211550Z 24017KT 9999 VCSH FEW016 BKN030 09/07 Q0998

METARs EXPIRÉS :
  • 211520Z 24019G29KT 9999 SCT016 BKN030 10/08 Q0998
  • 211450Z 25023G33KT 9000 -DZ BKN007 OVC014 09/08 Q0998 REDZ
  • 211420Z 24025G35KT 3000 DZ OVC008 10/09 Q0998
  • 211350Z 24024G38KT 2400 DZ OVC008 10/09 Q0998

TAF TAF EGEO
Valide du 21 à 15h jusqu'au 21 à 17h UTC


211357Z 2115/2117 23018G28KT 9999 SCT020
TEMPO 2115/2117 24025G38KT 3000 RADZ BKN008



MET'MAP, la Météo Aéronautique d'un coup d'oeil ! - Copyright ORBIFLY Décembre 2007 - Disclaimer

ORBIFLY MET'MAP TEAM :

Programmation & Développement : Alexandra Zaïnal
Sur une idée originale de : Baudouin d'Aumeries
Assistance à la programmation : Marc-Olivier Méhu
Soutien technique & logistique : Manuel Goepfert

Contact : metmap@orbifly.com




SOURCES & CREDITS :

   NOAA